createdAt,value
2022-12-11T00:00:43.524Z,19.00
2022-12-11T00:03:15.449Z,20.27
2022-12-11T00:05:42.732Z,18.15
2022-12-11T00:08:09.164Z,18.58
2022-12-11T00:10:38.006Z,19.75
2022-12-11T00:13:05.185Z,19.90
2022-12-11T00:15:31.541Z,20.88
2022-12-11T00:17:57.911Z,17.25
2022-12-11T00:20:24.831Z,17.02
2022-12-11T00:22:51.223Z,18.58
2022-12-11T00:25:17.708Z,18.83
2022-12-11T00:27:45.973Z,16.63
2022-12-11T00:30:12.879Z,20.92
2022-12-11T00:32:39.279Z,18.40
2022-12-11T00:35:05.666Z,17.58
2022-12-11T00:37:32.124Z,13.13
2022-12-11T00:39:58.622Z,19.67
2022-12-11T00:42:24.966Z,21.58
2022-12-11T00:44:51.418Z,15.18
2022-12-11T00:47:17.830Z,17.27
2022-12-11T00:49:49.623Z,15.40
2022-12-11T00:52:17.786Z,14.73
2022-12-11T01:06:55.860Z,19.35
2022-12-11T01:09:41.076Z,20.13
2022-12-11T01:12:07.477Z,18.23
2022-12-11T01:14:33.814Z,16.10
2022-12-11T01:17:00.203Z,20.15
2022-12-11T01:19:26.716Z,17.75
2022-12-11T01:21:53.082Z,17.05
2022-12-11T01:24:19.459Z,17.98
2022-12-11T01:26:45.820Z,22.70
2022-12-11T01:29:12.274Z,21.50
2022-12-11T01:31:38.716Z,19.00
2022-12-11T01:34:05.048Z,17.17
2022-12-11T01:36:31.403Z,16.13
2022-12-11T01:38:58.040Z,20.00
2022-12-11T01:41:24.483Z,19.10
2022-12-11T01:44:27.595Z,20.17
2022-12-11T01:46:54.414Z,26.73
2022-12-11T01:49:25.232Z,17.67
2022-12-11T01:51:59.305Z,24.27
2022-12-11T01:56:58.973Z,23.25
2022-12-11T01:59:29.097Z,17.92
2022-12-11T02:02:04.759Z,22.00
2022-12-11T02:04:33.016Z,19.42
2022-12-11T02:06:59.473Z,17.73
2022-12-11T02:09:35.467Z,17.92
2022-12-11T02:12:03.986Z,17.95
2022-12-11T02:14:44.195Z,20.10
2022-12-11T02:20:12.813Z,24.23
2022-12-11T02:23:16.869Z,17.98
2022-12-11T02:26:07.195Z,17.65
2022-12-11T02:28:46.083Z,21.92
2022-12-11T02:31:23.530Z,19.13
2022-12-11T02:34:01.768Z,19.02
2022-12-11T02:36:33.166Z,20.65
2022-12-11T02:39:01.494Z,18.73
2022-12-11T02:41:29.864Z,18.38
2022-12-11T02:43:57.838Z,16.67
2022-12-11T02:48:52.741Z,17.63
2022-12-11T02:51:23.993Z,17.73
2022-12-11T02:53:53.585Z,20.73
2022-12-11T02:56:26.819Z,18.45
2022-12-11T02:59:01.817Z,16.20
2022-12-11T03:01:28.312Z,17.25
2022-12-11T03:03:55.885Z,18.05
2022-12-11T03:06:27.548Z,17.75
2022-12-11T03:08:53.969Z,18.08
2022-12-11T03:11:20.374Z,19.17
2022-12-11T03:13:46.761Z,16.98
2022-12-11T03:16:37.042Z,14.25
2022-12-11T03:19:22.742Z,18.73
2022-12-11T03:21:54.699Z,15.77
2022-12-11T03:24:33.671Z,18.23
2022-12-11T03:27:25.854Z,18.13
2022-12-11T03:30:00.156Z,17.45
2022-12-11T03:32:36.470Z,18.58
2022-12-11T03:35:13.663Z,13.95
2022-12-11T03:37:42.231Z,19.10
2022-12-11T03:40:15.064Z,21.48
2022-12-11T03:42:45.098Z,21.25
2022-12-11T03:45:14.235Z,21.80
2022-12-11T03:47:43.139Z,15.52
2022-12-11T03:50:12.793Z,22.50
2022-12-11T03:52:46.040Z,18.60
2022-12-11T03:55:15.774Z,17.65
2022-12-11T03:57:42.513Z,18.25
2022-12-11T04:00:13.542Z,18.92
2022-12-11T04:02:41.169Z,18.30
2022-12-11T04:05:09.112Z,17.70
2022-12-11T04:07:35.962Z,19.58
2022-12-11T04:10:02.851Z,18.35
2022-12-11T04:12:29.172Z,19.05
2022-12-11T04:15:04.324Z,18.55
2022-12-11T04:17:51.320Z,20.58
2022-12-11T04:20:37.095Z,20.40
2022-12-11T04:23:24.014Z,19.27
2022-12-11T04:25:50.515Z,19.80
2022-12-11T04:28:16.957Z,19.05
2022-12-11T04:30:51.065Z,18.67
2022-12-11T04:38:10.084Z,16.50
2022-12-11T04:40:36.471Z,16.40
2022-12-11T04:43:03.184Z,19.55
2022-12-11T04:45:29.550Z,20.50
2022-12-11T04:47:55.894Z,18.45
2022-12-11T04:50:22.299Z,18.75
2022-12-11T04:52:48.683Z,23.90
2022-12-11T04:55:15.021Z,18.55
2022-12-11T04:57:41.718Z,19.48
2022-12-11T05:00:10.843Z,19.92
2022-12-11T05:02:38.683Z,18.50
2022-12-11T05:05:06.496Z,20.23
2022-12-11T05:07:33.045Z,19.27
2022-12-11T05:09:59.480Z,19.58
2022-12-11T05:12:26.026Z,21.65
2022-12-11T05:14:53.557Z,19.90
2022-12-11T05:17:21.424Z,19.92
2022-12-11T05:19:49.147Z,17.25
2022-12-11T05:22:16.188Z,21.15
2022-12-11T05:24:42.669Z,19.90
2022-12-11T05:27:10.075Z,19.05
2022-12-11T05:29:36.866Z,20.02
2022-12-11T05:32:04.804Z,22.30
2022-12-11T05:41:50.039Z,18.27
2022-12-11T05:44:16.517Z,23.60
2022-12-11T05:46:42.902Z,20.80
2022-12-11T05:49:10.851Z,17.60
2022-12-11T05:54:05.910Z,13.70
2022-12-11T05:56:34.022Z,18.80
2022-12-11T05:59:02.007Z,19.25
2022-12-11T06:03:57.188Z,12.98
2022-12-11T06:06:24.277Z,16.55
2022-12-11T06:08:55.082Z,19.45
2022-12-11T06:11:24.206Z,18.13
2022-12-11T06:13:51.511Z,19.17
2022-12-11T06:16:18.006Z,22.88
2022-12-11T06:18:45.569Z,19.60
2022-12-11T06:21:12.504Z,18.63
2022-12-11T06:26:07.047Z,17.33
2022-12-11T06:28:33.406Z,20.63
2022-12-11T06:31:00.364Z,16.40
2022-12-11T06:33:26.826Z,20.80
2022-12-11T06:35:53.533Z,17.80
2022-12-11T06:38:19.877Z,24.52
2022-12-11T06:40:46.230Z,20.23
2022-12-11T06:43:12.590Z,20.02
2022-12-11T06:45:39.066Z,16.50
2022-12-11T06:48:05.602Z,22.67
2022-12-11T06:50:32.004Z,19.05
2022-12-11T06:52:58.347Z,18.30
2022-12-11T06:55:24.678Z,17.10
2022-12-11T06:57:51.183Z,17.60
2022-12-11T07:00:17.609Z,19.13
2022-12-11T07:02:44.140Z,19.83
2022-12-11T07:05:10.969Z,20.13
2022-12-11T07:07:37.748Z,18.88
2022-12-11T07:10:08.335Z,17.00
2022-12-11T07:12:35.561Z,19.52
2022-12-11T07:15:02.216Z,20.15
2022-12-11T07:17:29.637Z,18.10
2022-12-11T07:19:56.187Z,19.63
2022-12-11T07:22:22.713Z,16.00
2022-12-11T07:24:49.093Z,14.07
2022-12-11T07:27:15.452Z,18.92
2022-12-11T07:29:41.812Z,16.88
2022-12-11T07:32:08.275Z,22.10
2022-12-11T07:34:34.815Z,19.75
2022-12-11T07:37:01.231Z,20.77
2022-12-11T07:39:27.632Z,16.98
2022-12-11T07:41:54.004Z,20.88
2022-12-11T07:44:20.623Z,21.92
2022-12-11T07:46:47.230Z,22.58
2022-12-11T07:49:13.599Z,20.30
2022-12-11T07:51:40.212Z,24.13
2022-12-11T07:54:10.646Z,20.85
2022-12-11T07:56:36.996Z,18.17
2022-12-11T07:59:05.917Z,17.58
2022-12-11T08:01:36.332Z,20.92
2022-12-11T08:04:05.326Z,20.83
2022-12-11T08:06:34.641Z,16.67
2022-12-11T08:09:03.643Z,18.42
2022-12-11T08:11:30.544Z,19.50
2022-12-11T08:13:59.259Z,22.15
2022-12-11T08:16:26.560Z,24.17
2022-12-11T08:18:53.460Z,22.05
2022-12-11T08:21:22.655Z,20.17
2022-12-11T08:23:50.336Z,18.98
2022-12-11T08:26:28.353Z,19.13
2022-12-11T08:28:55.421Z,18.17
2022-12-11T08:31:22.469Z,17.63
2022-12-11T08:33:49.233Z,18.63
2022-12-11T08:36:18.734Z,19.20
2022-12-11T08:38:46.546Z,25.27
2022-12-11T08:41:21.911Z,19.48
2022-12-11T08:43:48.437Z,13.55
2022-12-11T08:46:15.510Z,17.25
2022-12-11T08:48:43.280Z,18.27
2022-12-11T08:51:14.777Z,17.52
2022-12-11T08:53:41.525Z,17.75
2022-12-11T08:56:11.155Z,16.92
2022-12-11T08:58:37.772Z,17.42
2022-12-11T09:01:12.159Z,18.42
2022-12-11T09:03:39.954Z,17.08
2022-12-11T09:06:11.880Z,17.30
2022-12-11T09:08:39.663Z,21.63
2022-12-11T09:11:11.262Z,16.80
2022-12-11T09:13:39.007Z,19.20
2022-12-11T09:16:08.014Z,16.48
2022-12-11T09:18:34.718Z,18.63
2022-12-11T09:21:03.828Z,19.15
2022-12-11T09:23:30.406Z,17.38
2022-12-11T09:25:57.123Z,16.92
2022-12-11T09:28:23.767Z,18.05
2022-12-11T09:30:50.927Z,16.92
2022-12-11T09:33:17.800Z,15.82
2022-12-11T09:35:44.222Z,16.83
2022-12-11T09:38:10.605Z,15.52
2022-12-11T09:40:43.182Z,18.50
2022-12-11T09:43:17.185Z,16.45
2022-12-11T09:50:37.632Z,16.33
2022-12-11T09:53:18.759Z,15.75
2022-12-11T09:56:00.213Z,17.63
2022-12-11T09:58:51.080Z,17.58
2022-12-11T10:01:35.795Z,16.85
2022-12-11T10:04:22.852Z,17.17
2022-12-11T10:06:56.534Z,12.80
2022-12-11T10:09:35.877Z,13.50
2022-12-11T10:12:13.451Z,14.00
2022-12-11T10:14:47.015Z,16.98
2022-12-11T10:17:20.798Z,10.98
2022-12-11T10:19:48.279Z,12.23
2022-12-11T10:22:22.754Z,13.07
2022-12-11T10:25:12.731Z,13.57
2022-12-11T10:27:40.759Z,13.77
2022-12-11T10:35:33.933Z,14.68
2022-12-11T10:38:30.491Z,12.68
2022-12-11T10:41:26.867Z,12.40
2022-12-11T10:43:53.816Z,14.85
2022-12-11T10:46:25.890Z,14.43
2022-12-11T10:48:53.629Z,13.10
2022-12-11T10:51:26.427Z,12.60
2022-12-11T10:53:55.518Z,18.17
2022-12-11T10:56:27.291Z,14.98
2022-12-11T10:58:55.184Z,14.77
2022-12-11T11:04:18.903Z,16.48
2022-12-11T11:06:45.280Z,13.52
2022-12-11T11:09:33.691Z,17.30
2022-12-11T11:12:05.975Z,18.60
2022-12-11T11:14:34.213Z,18.40
2022-12-11T11:17:01.171Z,14.65
2022-12-11T11:19:33.539Z,13.50
2022-12-11T11:22:14.792Z,18.13
2022-12-11T11:24:51.967Z,15.23
2022-12-11T11:27:30.994Z,18.30
2022-12-11T11:30:01.595Z,14.15
2022-12-11T11:32:34.206Z,17.90
2022-12-11T11:35:18.554Z,14.80
2022-12-11T11:37:59.794Z,16.35
2022-12-11T11:40:30.385Z,15.80
2022-12-11T11:43:18.516Z,11.68
2022-12-11T11:46:00.728Z,14.90
2022-12-11T11:48:48.964Z,15.93
2022-12-11T11:51:18.443Z,15.70
2022-12-11T11:53:49.656Z,18.50
2022-12-11T11:56:26.595Z,16.23
2022-12-11T11:59:19.043Z,16.10
2022-12-11T12:01:45.507Z,11.07
2022-12-11T12:04:12.270Z,12.13
2022-12-11T12:06:51.189Z,13.07
2022-12-11T12:09:30.394Z,12.50
2022-12-11T12:12:25.667Z,7.78
2022-12-11T12:15:18.318Z,11.75
2022-12-11T12:17:56.204Z,12.05
2022-12-11T12:20:44.418Z,13.65
2022-12-11T12:23:38.483Z,13.82
2022-12-11T12:26:21.811Z,12.80
2022-12-11T12:29:14.155Z,13.55
2022-12-11T12:34:20.357Z,15.68
2022-12-11T12:37:00.225Z,16.27
2022-12-11T12:39:44.543Z,13.40
2022-12-11T12:42:37.923Z,13.30
2022-12-11T12:45:16.335Z,12.23
2022-12-11T12:47:50.411Z,11.00
2022-12-11T12:50:25.700Z,14.43
2022-12-11T12:52:53.845Z,12.23
2022-12-11T12:55:34.779Z,11.25
2022-12-11T12:58:05.144Z,14.25
2022-12-11T13:00:37.396Z,10.25
2022-12-11T13:03:18.494Z,14.18
2022-12-11T13:05:55.991Z,13.60
2022-12-11T13:08:27.810Z,17.67
2022-12-11T13:11:03.606Z,12.77
2022-12-11T13:13:38.500Z,14.55
2022-12-11T13:16:17.181Z,14.00
2022-12-11T13:18:47.346Z,13.20
2022-12-11T13:21:33.124Z,10.88
2022-12-11T13:24:46.477Z,13.45
2022-12-11T13:27:42.813Z,14.00
2022-12-11T13:30:14.803Z,12.68
2022-12-11T13:32:43.588Z,11.63
2022-12-11T13:35:16.249Z,14.57
2022-12-11T13:37:49.797Z,12.10
2022-12-11T13:40:25.891Z,13.50
2022-12-11T13:42:56.950Z,12.20
2022-12-11T13:45:29.011Z,10.90
2022-12-11T13:47:59.014Z,10.93
2022-12-11T13:50:29.972Z,10.98
2022-12-11T13:52:58.557Z,6.45
2022-12-11T13:55:31.316Z,6.63
2022-12-11T13:57:58.197Z,10.35
2022-12-11T14:00:30.394Z,11.02
2022-12-11T14:03:00.253Z,8.70
2022-12-11T14:05:28.396Z,10.00
2022-12-11T14:08:02.319Z,13.07
2022-12-11T14:10:32.379Z,8.15
2022-12-11T14:13:19.786Z,10.57
2022-12-11T14:15:46.546Z,11.82
2022-12-11T14:18:17.861Z,11.82
2022-12-11T14:20:44.260Z,11.32
2022-12-11T14:23:18.966Z,11.43
2022-12-11T14:25:56.766Z,9.65
2022-12-11T14:28:27.486Z,9.75
2022-12-11T14:30:58.081Z,13.40
2022-12-11T14:33:30.562Z,11.80
2022-12-11T14:35:57.834Z,10.15
2022-12-11T14:38:33.444Z,10.80
2022-12-11T14:41:05.177Z,11.50
2022-12-11T14:43:44.987Z,10.02
2022-12-11T14:46:19.642Z,9.60
2022-12-11T14:49:02.197Z,7.10
2022-12-11T14:51:38.567Z,9.38
2022-12-11T14:54:06.261Z,10.00
2022-12-11T14:56:33.484Z,12.57
2022-12-11T14:59:06.580Z,10.35
2022-12-11T15:01:37.350Z,13.02
2022-12-11T15:04:07.163Z,12.55
2022-12-11T15:06:45.441Z,15.75
2022-12-11T15:09:36.519Z,12.40
2022-12-11T15:12:15.766Z,12.23
2022-12-11T15:14:58.148Z,10.48
2022-12-11T15:17:26.020Z,11.52
2022-12-11T15:20:02.406Z,8.38
2022-12-11T15:22:32.247Z,10.63
2022-12-11T15:25:00.009Z,12.98
2022-12-11T15:27:35.598Z,11.05
2022-12-11T15:30:14.396Z,15.82
2022-12-11T15:32:41.094Z,21.45
2022-12-11T15:35:27.348Z,15.23
2022-12-11T15:37:56.253Z,11.98
2022-12-11T15:40:23.240Z,13.48
2022-12-11T15:42:50.839Z,12.07
2022-12-11T15:45:20.409Z,14.23
2022-12-11T15:47:48.221Z,19.48
2022-12-11T15:50:41.414Z,20.42
2022-12-11T15:53:09.112Z,14.90
2022-12-11T15:55:38.281Z,12.10
2022-12-11T15:58:07.691Z,12.60
2022-12-11T16:00:34.006Z,15.40
2022-12-11T16:03:00.365Z,12.65
2022-12-11T16:05:26.858Z,14.98
2022-12-11T16:07:54.656Z,10.13
2022-12-11T16:10:22.068Z,13.38
2022-12-11T16:12:48.451Z,14.10
2022-12-11T16:15:21.465Z,15.30
2022-12-11T16:17:49.752Z,14.13
2022-12-11T16:20:16.173Z,15.02
2022-12-11T16:22:42.499Z,14.07
2022-12-11T16:25:09.021Z,10.15
2022-12-11T16:27:35.605Z,14.95
2022-12-11T16:30:02.016Z,15.52
2022-12-11T16:32:28.361Z,15.40
2022-12-11T16:34:54.896Z,17.48
2022-12-11T16:37:21.389Z,12.00
2022-12-11T16:39:48.068Z,11.07
2022-12-11T16:42:14.392Z,15.55
2022-12-11T16:44:43.962Z,16.10
2022-12-11T16:47:10.721Z,15.50
2022-12-11T16:49:37.138Z,15.65
2022-12-11T16:52:03.694Z,18.05
2022-12-11T16:54:30.089Z,12.55
2022-12-11T16:56:56.441Z,18.13
2022-12-11T16:59:22.782Z,15.25
2022-12-11T17:01:50.573Z,18.73
2022-12-11T17:04:17.033Z,18.13
2022-12-11T17:06:43.395Z,18.30
2022-12-11T17:09:09.721Z,15.15
2022-12-11T17:11:36.083Z,21.00
2022-12-11T17:14:02.469Z,15.45
2022-12-11T17:16:30.492Z,17.00
2022-12-11T17:21:23.866Z,13.35
2022-12-11T17:23:50.814Z,14.50
2022-12-11T17:26:18.242Z,14.98
2022-12-11T17:28:45.143Z,18.05
2022-12-11T17:31:17.197Z,18.55
2022-12-11T17:33:44.861Z,16.63
2022-12-11T17:36:17.999Z,14.60
2022-12-11T17:38:44.655Z,14.40
2022-12-11T17:41:19.806Z,20.00
2022-12-11T17:43:48.299Z,11.65
2022-12-11T17:46:14.908Z,15.88
2022-12-11T17:48:41.414Z,19.80
2022-12-11T17:51:09.304Z,17.27
2022-12-11T17:53:36.678Z,16.88
2022-12-11T17:56:05.807Z,17.08
2022-12-11T17:58:32.721Z,15.18
2022-12-11T18:00:59.815Z,17.42
2022-12-11T18:03:28.142Z,21.45
2022-12-11T18:05:56.593Z,22.05
2022-12-11T18:08:26.941Z,18.98
2022-12-11T18:10:54.267Z,14.50
2022-12-11T18:13:21.907Z,15.50
2022-12-11T18:16:04.048Z,12.27
2022-12-11T18:18:31.025Z,16.48
2022-12-11T18:20:57.452Z,25.90
2022-12-11T18:23:24.098Z,26.63
2022-12-11T18:25:52.080Z,24.42
2022-12-11T18:30:45.568Z,15.90
2022-12-11T18:33:13.023Z,19.58
2022-12-11T18:35:40.294Z,21.67
2022-12-11T18:38:07.209Z,16.90
2022-12-11T18:40:34.160Z,16.73
2022-12-11T18:43:00.562Z,17.88
2022-12-11T18:45:27.048Z,18.02
2022-12-11T18:47:55.602Z,20.52
2022-12-11T18:50:22.009Z,18.27
2022-12-11T18:52:53.070Z,18.58
2022-12-11T18:55:19.430Z,21.63
2022-12-11T18:57:45.828Z,19.77
2022-12-11T19:00:13.158Z,14.88
2022-12-11T19:02:39.803Z,20.50
2022-12-11T19:05:06.423Z,15.07
2022-12-11T19:07:32.869Z,20.17
2022-12-11T19:09:59.228Z,19.38
2022-12-11T19:12:25.680Z,20.67
2022-12-11T19:14:52.038Z,22.25
2022-12-11T19:17:18.382Z,22.63
2022-12-11T19:19:46.250Z,20.80
2022-12-11T19:22:13.206Z,22.00
2022-12-11T19:24:39.797Z,30.85
2022-12-11T19:27:13.088Z,20.27
2022-12-11T19:29:40.152Z,17.83
2022-12-11T19:32:06.621Z,20.27
2022-12-11T19:34:33.069Z,20.67
2022-12-11T19:36:59.549Z,20.42
2022-12-11T19:39:26.213Z,21.00
2022-12-11T19:41:52.597Z,19.50
2022-12-11T19:44:18.999Z,22.30
2022-12-11T19:46:45.465Z,18.27
2022-12-11T19:49:12.134Z,22.90
2022-12-11T19:51:40.576Z,20.52
2022-12-11T19:54:09.041Z,20.05
2022-12-11T19:56:36.128Z,25.73
2022-12-11T19:59:07.250Z,16.23
2022-12-11T20:01:36.545Z,22.95
2022-12-11T20:04:06.451Z,18.55
2022-12-11T20:06:35.785Z,24.83
2022-12-11T20:09:05.681Z,17.27
2022-12-11T20:11:33.472Z,20.45
2022-12-11T20:13:59.959Z,20.15
2022-12-11T20:16:53.423Z,24.88
2022-12-11T20:19:12.950Z,26.70
2022-12-11T20:21:39.330Z,22.38
2022-12-11T20:24:06.489Z,19.70
2022-12-11T20:26:35.887Z,22.55
2022-12-11T20:29:05.153Z,22.55
2022-12-11T20:31:31.605Z,20.10
2022-12-11T20:33:58.126Z,25.77
2022-12-11T20:36:25.912Z,20.70
2022-12-11T20:38:52.238Z,28.50
2022-12-11T20:41:23.765Z,26.80
2022-12-11T20:43:50.650Z,22.80
2022-12-11T20:46:18.549Z,23.40
2022-12-11T20:51:14.579Z,17.15
2022-12-11T20:53:42.326Z,19.75
2022-12-11T20:56:14.683Z,19.33
2022-12-11T20:58:41.267Z,28.13
2022-12-11T21:01:12.488Z,18.95
2022-12-11T21:03:41.991Z,15.77
2022-12-11T21:06:17.278Z,23.75
2022-12-11T21:08:43.619Z,21.75
2022-12-11T21:11:10.443Z,18.70
2022-12-11T21:13:37.275Z,26.35
2022-12-11T21:16:07.936Z,20.45
2022-12-11T21:18:34.411Z,21.63
2022-12-11T21:21:00.769Z,23.33
2022-12-11T21:23:27.144Z,20.67
2022-12-11T21:25:53.985Z,17.63
2022-12-11T21:28:20.958Z,26.27
2022-12-11T21:30:47.365Z,22.52
2022-12-11T21:33:13.997Z,19.60
2022-12-11T21:35:40.524Z,19.05
2022-12-11T21:38:06.944Z,30.25
2022-12-11T21:40:34.042Z,20.17
2022-12-11T21:43:00.477Z,24.80
2022-12-11T21:45:59.356Z,22.88
2022-12-11T21:50:41.214Z,17.25
2022-12-11T21:53:07.556Z,24.65
2022-12-11T21:55:33.970Z,22.52
2022-12-11T21:58:00.363Z,23.20
2022-12-11T22:00:28.171Z,23.50
2022-12-11T22:02:54.704Z,22.85
2022-12-11T22:05:21.189Z,18.13
2022-12-11T22:07:47.577Z,19.27
2022-12-11T22:10:14.022Z,20.35
2022-12-11T22:12:40.440Z,21.92
2022-12-11T22:15:07.709Z,20.23
2022-12-11T22:17:34.121Z,24.88
2022-12-11T22:20:00.480Z,21.30
2022-12-11T22:22:26.967Z,17.55
2022-12-11T22:24:53.302Z,23.05
2022-12-11T22:27:23.664Z,21.80
2022-12-11T22:29:50.276Z,21.67
2022-12-11T22:32:16.656Z,22.10
2022-12-11T22:34:43.045Z,21.45
2022-12-11T22:37:09.532Z,20.67
2022-12-11T22:39:35.886Z,23.30
2022-12-11T22:42:02.250Z,15.77
2022-12-11T22:44:28.602Z,22.48
2022-12-11T22:46:55.053Z,18.67
2022-12-11T22:49:21.456Z,22.67
2022-12-11T22:51:48.928Z,19.90
2022-12-11T22:54:15.486Z,20.40
2022-12-11T22:56:41.801Z,21.67
2022-12-11T22:59:08.281Z,23.30
2022-12-11T23:01:34.726Z,21.58
2022-12-11T23:04:01.051Z,22.95
2022-12-11T23:06:27.519Z,21.27
2022-12-11T23:08:58.219Z,17.35
2022-12-11T23:11:34.807Z,25.77
2022-12-11T23:14:01.475Z,24.85
2022-12-11T23:16:28.373Z,22.42
2022-12-11T23:18:55.958Z,21.50
2022-12-11T23:21:23.125Z,22.58
2022-12-11T23:23:49.688Z,19.67
2022-12-11T23:26:18.630Z,21.67
2022-12-11T23:28:46.037Z,21.33
2022-12-11T23:31:12.558Z,19.15
2022-12-11T23:33:39.041Z,21.08
2022-12-11T23:36:06.076Z,20.10
2022-12-11T23:38:32.581Z,19.90
2022-12-11T23:41:01.413Z,22.23
2022-12-11T23:43:27.918Z,25.73
2022-12-11T23:45:54.423Z,19.52
2022-12-11T23:48:21.031Z,20.73
2022-12-11T23:50:48.090Z,20.23
2022-12-11T23:53:14.927Z,22.15
2022-12-11T23:55:43.873Z,23.05
2022-12-11T23:58:10.746Z,20.83
